Time;durP1;ratioP1;P1;durP2;ratioP2;P2;SDS_P1;SDS_P2;PMS_P1;PMS_P2;Temp;Humidity;BMP_temperature;BMP_pressure;BME280_temperature;BME280_humidity;BME280_pressure;Samples;Min_cycle;Max_cycle;Signal;HPM_P1;HPM_P2
2022/06/07 00:00:10;;;;;;;4.70;3.27;;;14.00;99.90;;;;;;4166688;28;20243;-68
2022/06/07 00:02:12;;;;;;;6.47;3.27;;;14.00;99.90;;;;;;4164479;28;20185;-68
2022/06/07 00:04:12;;;;;;;4.43;3.90;;;14.00;99.90;;;;;;4165176;28;20267;-68
2022/06/07 00:06:13;;;;;;;5.37;3.83;;;13.90;99.90;;;;;;4180448;28;20656;-68
2022/06/07 00:08:16;;;;;;;6.73;3.80;;;14.00;99.90;;;;;;4180995;28;20251;-68
2022/06/07 00:10:17;;;;;;;4.53;3.70;;;14.00;99.90;;;;;;4180923;28;20172;-68
2022/06/07 00:12:17;;;;;;;4.60;3.53;;;13.90;99.90;;;;;;4180987;28;20833;-68
2022/06/07 00:14:18;;;;;;;5.60;4.27;;;13.80;99.90;;;;;;4180597;28;20683;-68
2022/06/07 00:16:19;;;;;;;4.40;3.43;;;13.70;99.90;;;;;;4180254;28;20236;-68
2022/06/07 00:18:19;;;;;;;5.77;4.43;;;13.80;99.90;;;;;;4180494;28;20177;-68
2022/06/07 00:20:21;;;;;;;4.83;4.33;;;13.80;99.90;;;;;;4180714;28;20204;-68
2022/06/07 00:22:21;;;;;;;4.43;3.73;;;13.80;99.90;;;;;;4180883;28;20241;-68
2022/06/07 00:24:22;;;;;;;7.97;4.07;;;13.70;99.90;;;;;;4180464;28;20216;-68
2022/06/07 00:26:23;;;;;;;4.17;3.50;;;13.70;99.90;;;;;;4180065;28;20185;-68
2022/06/07 00:28:23;;;;;;;4.13;3.60;;;13.60;99.90;;;;;;4180657;28;20184;-68
2022/06/07 00:30:24;;;;;;;3.83;3.30;;;13.60;99.90;;;;;;4180613;28;20180;-68
2022/06/07 00:32:25;;;;;;;3.47;3.17;;;13.60;99.90;;;;;;4180486;28;20589;-68
2022/06/07 00:34:26;;;;;;;4.67;3.60;;;13.60;99.90;;;;;;4180261;28;20262;-68
2022/06/07 00:36:27;;;;;;;4.27;3.00;;;13.70;99.90;;;;;;4179987;28;20202;-68
2022/06/07 00:38:28;;;;;;;4.13;3.00;;;13.50;99.90;;;;;;4180437;28;20195;-68
2022/06/07 00:40:29;;;;;;;4.43;3.27;;;13.50;99.90;;;;;;4180485;28;20202;-68
2022/06/07 00:42:29;;;;;;;4.70;3.00;;;13.50;99.90;;;;;;4180422;28;20230;-68
2022/06/07 00:44:39;;;;;;;3.60;3.30;;;13.50;99.90;;;;;;4180483;28;20295;-68
2022/06/07 00:46:41;;;;;;;3.47;3.13;;;13.50;99.90;;;;;;4179751;28;20182;-68
2022/06/07 00:48:41;;;;;;;5.77;3.00;;;13.50;99.90;;;;;;4180386;28;20172;-68
2022/06/07 00:50:49;;;;;;;3.10;2.70;;;13.40;99.90;;;;;;4180240;28;20204;-68
2022/06/07 00:52:50;;;;;;;4.27;2.90;;;13.40;99.90;;;;;;4180341;28;20195;-69
2022/06/07 00:54:51;;;;;;;3.30;2.50;;;13.40;99.90;;;;;;4180120;28;20204;-69
2022/06/07 00:56:52;;;;;;;3.50;2.63;;;13.40;99.90;;;;;;4179626;28;20567;-68
2022/06/07 00:58:52;;;;;;;2.87;2.67;;;13.30;99.90;;;;;;4180476;28;20227;-69
2022/06/07 01:00:54;;;;;;;4.60;2.80;;;13.30;99.90;;;;;;4180347;28;20187;-69
2022/06/07 01:02:55;;;;;;;4.83;2.90;;;13.20;99.90;;;;;;4180079;28;20188;-69
2022/06/07 01:04:56;;;;;;;2.60;2.40;;;13.20;99.90;;;;;;4180022;28;20276;-68
2022/06/07 01:11:35;;;;;;;2.80;2.50;;;13.20;99.90;;;;;;4180441;28;20191;-69
2022/06/07 01:13:36;;;;;;;3.40;2.60;;;13.10;99.90;;;;;;4180207;28;20832;-68
2022/06/07 01:15:36;;;;;;;3.50;2.80;;;13.10;99.90;;;;;;4179751;28;20181;-68
2022/06/07 01:17:37;;;;;;;2.80;2.50;;;13.10;99.90;;;;;;4179606;28;20184;-68
2022/06/07 01:19:38;;;;;;;5.50;2.30;;;13.10;99.90;;;;;;4179980;28;20550;-69
2022/06/07 01:21:45;;;;;;;3.57;2.43;;;13.00;99.90;;;;;;4180110;28;20223;-69
2022/06/07 01:23:46;;;;;;;3.37;2.50;;;13.00;99.90;;;;;;4180077;28;20717;-69
2022/06/07 01:25:47;;;;;;;4.23;2.60;;;13.00;99.90;;;;;;4179236;28;20191;-69
2022/06/07 01:27:48;;;;;;;2.67;2.10;;;13.00;99.90;;;;;;4179913;28;20176;-69
2022/06/07 01:29:48;;;;;;;4.50;2.50;;;13.00;99.90;;;;;;4180008;28;20172;-69
2022/06/07 01:31:49;;;;;;;2.97;2.67;;;13.00;99.90;;;;;;4179967;28;20229;-69
2022/06/07 01:33:50;;;;;;;4.00;2.67;;;13.00;99.90;;;;;;4179516;28;20207;-69
2022/06/07 01:36:11;;;;;;;6.00;2.60;;;13.00;99.90;;;;;;4178962;28;20192;-69
2022/06/07 01:38:12;;;;;;;3.10;2.50;;;13.10;99.90;;;;;;4179694;28;20215;-69
2022/06/07 01:42:33;;;;;;;2.33;2.13;;;13.00;99.90;;;;;;4179635;28;20184;-69
2022/06/07 01:44:38;;;;;;;3.50;2.57;;;12.80;99.90;;;;;;4179285;28;20586;-69
2022/06/07 01:46:38;;;;;;;3.07;2.10;;;12.70;99.90;;;;;;4178834;28;20172;-69
2022/06/07 01:48:39;;;;;;;4.03;2.30;;;12.80;99.90;;;;;;4179354;28;20180;-69
2022/06/07 01:50:39;;;;;;;3.03;2.53;;;12.80;99.90;;;;;;4179331;28;20176;-69
2022/06/07 01:52:40;;;;;;;2.80;2.50;;;12.80;99.90;;;;;;4179619;28;20184;-69
2022/06/07 01:54:41;;;;;;;4.07;2.43;;;12.80;99.90;;;;;;4178426;28;20211;-69
2022/06/07 01:56:42;;;;;;;2.47;2.27;;;12.90;99.90;;;;;;4178789;28;20249;-69
2022/06/07 01:58:43;;;;;;;3.40;2.43;;;13.00;99.90;;;;;;4179235;28;20245;-69
2022/06/07 02:00:44;;;;;;;4.30;2.60;;;12.90;99.90;;;;;;4179186;28;20176;-69
2022/06/07 02:02:46;;;;;;;4.33;3.10;;;12.90;99.90;;;;;;4179061;28;20531;-69
2022/06/07 02:04:46;;;;;;;2.73;2.53;;;12.90;99.90;;;;;;4179067;28;20291;-69
2022/06/07 02:06:49;;;;;;;3.50;2.97;;;12.90;99.90;;;;;;4178704;28;20222;-69
2022/06/07 02:08:49;;;;;;;2.50;2.30;;;12.80;99.90;;;;;;4179260;28;20176;-69
2022/06/07 02:10:50;;;;;;;2.77;2.37;;;12.80;99.90;;;;;;4179122;28;20176;-69
2022/06/07 02:12:51;;;;;;;3.27;2.50;;;12.90;99.90;;;;;;4179121;28;20173;-69
2022/06/07 02:14:51;;;;;;;3.57;2.37;;;12.90;99.90;;;;;;4178938;28;20196;-69
2022/06/07 02:16:52;;;;;;;2.90;2.33;;;12.90;99.90;;;;;;4178405;28;20176;-69
2022/06/07 02:18:52;;;;;;;3.33;2.60;;;12.90;99.90;;;;;;4179124;28;20238;-69
2022/06/07 02:20:57;;;;;;;3.00;2.70;;;12.80;99.90;;;;;;4179088;28;20188;-69
2022/06/07 02:22:58;;;;;;;2.93;2.63;;;12.70;99.90;;;;;;4172101;28;20185;-69
2022/06/07 02:24:58;;;;;;;2.60;2.40;;;12.70;99.90;;;;;;4178385;28;20725;-69
2022/06/07 02:27:06;;;;;;;2.80;2.57;;;12.70;99.90;;;;;;4178381;28;20176;-69
2022/06/07 02:29:17;;;;;;;2.77;2.57;;;12.70;99.90;;;;;;4177519;28;20184;-69
2022/06/07 02:31:19;;;;;;;2.67;2.47;;;12.80;99.90;;;;;;4178776;28;20720;-69
2022/06/07 02:33:21;;;;;;;2.70;2.50;;;12.70;99.90;;;;;;4178581;28;20230;-69
2022/06/07 02:35:22;;;;;;;4.53;2.87;;;12.70;99.90;;;;;;4178127;28;20258;-69
2022/06/07 02:37:24;;;;;;;3.27;2.50;;;12.70;99.90;;;;;;4178348;28;20172;-69
2022/06/07 02:39:25;;;;;;;2.50;2.20;;;12.70;99.90;;;;;;4176691;28;20188;-69
2022/06/07 02:41:27;;;;;;;3.20;2.70;;;12.60;99.90;;;;;;4178805;28;20282;-70
2022/06/07 02:43:28;;;;;;;2.60;2.40;;;12.70;99.90;;;;;;4178491;28;20176;-69
2022/06/07 02:45:30;;;;;;;3.40;2.20;;;12.60;99.90;;;;;;4178035;28;20164;-70
2022/06/07 02:47:31;;;;;;;2.67;2.37;;;12.70;99.90;;;;;;4178609;28;20638;-69
2022/06/07 02:49:31;;;;;;;2.97;2.40;;;12.80;99.90;;;;;;4178620;28;20183;-69
2022/06/07 02:51:32;;;;;;;4.50;2.60;;;12.70;99.90;;;;;;4178589;28;20177;-69
2022/06/07 02:53:32;;;;;;;2.37;2.17;;;12.70;99.90;;;;;;4178356;28;20527;-70
2022/06/07 02:55:33;;;;;;;3.17;2.77;;;12.60;99.90;;;;;;4177881;28;20180;-70
2022/06/07 02:57:34;;;;;;;2.50;2.30;;;12.70;99.90;;;;;;4178752;28;20195;-70
2022/06/07 02:59:35;;;;;;;2.90;2.70;;;12.60;99.90;;;;;;4178871;28;20696;-69
2022/06/07 03:01:36;;;;;;;4.37;2.70;;;12.70;99.90;;;;;;4178933;28;20271;-69
2022/06/07 03:03:36;;;;;;;3.13;2.53;;;12.60;99.90;;;;;;4178807;28;20196;-69
2022/06/07 03:05:37;;;;;;;3.63;2.50;;;12.60;99.90;;;;;;4178035;28;20188;-69
2022/06/07 03:07:39;;;;;;;2.87;2.67;;;12.60;99.90;;;;;;4178775;28;20187;-70
2022/06/07 03:09:39;;;;;;;4.43;2.80;;;12.70;99.90;;;;;;4178695;28;20720;-70
2022/06/07 03:11:40;;;;;;;3.50;2.60;;;12.70;99.90;;;;;;4178594;28;20180;-70
2022/06/07 03:13:41;;;;;;;3.17;2.70;;;12.70;99.90;;;;;;4178415;28;20207;-70
2022/06/07 03:15:42;;;;;;;3.13;2.83;;;12.70;99.90;;;;;;4177847;28;20706;-70
2022/06/07 03:17:44;;;;;;;3.70;2.70;;;12.80;99.90;;;;;;4178625;28;20699;-70
2022/06/07 03:19:45;;;;;;;2.73;2.17;;;12.80;99.90;;;;;;4178444;28;20256;-70
2022/06/07 03:21:46;;;;;;;2.70;2.50;;;12.80;99.90;;;;;;4178424;28;20245;-70
2022/06/07 03:23:46;;;;;;;3.67;2.80;;;12.80;99.90;;;;;;4178216;28;20238;-70
2022/06/07 03:25:47;;;;;;;2.73;2.53;;;12.70;99.90;;;;;;4177879;28;20176;-70
2022/06/07 03:27:47;;;;;;;3.20;2.80;;;12.70;99.90;;;;;;4178430;28;20609;-70
2022/06/07 03:29:48;;;;;;;3.70;2.93;;;12.80;99.90;;;;;;4178418;28;20189;-70
2022/06/07 03:31:48;;;;;;;3.33;2.43;;;12.80;99.90;;;;;;4178235;28;20952;-70
2022/06/07 03:33:49;;;;;;;3.40;2.53;;;12.70;99.90;;;;;;4178445;28;20259;-69
2022/06/07 03:35:50;;;;;;;2.23;2.03;;;12.70;99.90;;;;;;4178074;28;20177;-70
2022/06/07 03:37:50;;;;;;;2.60;2.40;;;12.80;99.90;;;;;;4178294;28;20259;-69
2022/06/07 03:39:51;;;;;;;8.20;2.40;;;12.80;99.90;;;;;;4178558;28;20659;-70
2022/06/07 03:41:52;;;;;;;3.30;2.10;;;12.90;99.90;;;;;;4178330;28;20256;-70
2022/06/07 03:43:53;;;;;;;2.20;2.00;;;12.90;99.90;;;;;;4178149;28;20620;-69
2022/06/07 03:45:54;;;;;;;2.50;2.10;;;13.00;99.90;;;;;;4177124;28;20176;-70
2022/06/07 03:47:54;;;;;;;2.20;2.00;;;13.00;99.90;;;;;;4178149;28;20184;-69
2022/06/07 03:49:55;;;;;;;2.23;1.93;;;12.90;99.90;;;;;;4165985;28;20875;-70
2022/06/07 03:51:55;;;;;;;2.30;2.10;;;12.90;99.90;;;;;;4164976;28;20256;-70
2022/06/07 03:53:57;;;;;;;3.37;2.20;;;12.80;99.90;;;;;;4165110;28;20559;-70
2022/06/07 03:55:58;;;;;;;2.33;2.13;;;12.90;99.90;;;;;;4164651;28;20602;-70
2022/06/07 03:57:58;;;;;;;4.83;2.40;;;12.90;99.90;;;;;;4165074;28;20234;-70
2022/06/07 03:59:59;;;;;;;3.23;2.10;;;12.90;99.90;;;;;;4164930;28;20235;-70
2022/06/07 04:02:00;;;;;;;2.67;2.30;;;12.90;99.90;;;;;;4164833;28;20738;-70
2022/06/07 04:04:03;;;;;;;2.43;2.23;;;12.90;99.90;;;;;;4164725;28;20213;-70
2022/06/07 04:06:04;;;;;;;2.80;2.60;;;12.90;99.90;;;;;;4164166;28;20550;-70
2022/06/07 04:08:11;;;;;;;2.20;2.00;;;12.90;99.90;;;;;;4163399;28;20267;-70
2022/06/07 04:10:11;;;;;;;2.47;2.17;;;12.90;99.90;;;;;;4164584;28;20239;-70
2022/06/07 04:12:15;;;;;;;4.03;2.73;;;13.00;99.90;;;;;;4164717;28;20264;-70
2022/06/07 04:14:15;;;;;;;3.57;2.90;;;12.80;99.90;;;;;;4165042;28;20204;-70
2022/06/07 04:16:22;;;;;;;2.60;2.40;;;12.90;99.90;;;;;;4164033;28;20179;-70
2022/06/07 04:18:23;;;;;;;3.37;2.50;;;13.00;99.90;;;;;;4164641;28;20179;-70
2022/06/07 04:20:23;;;;;;;3.03;2.50;;;12.90;99.90;;;;;;4164363;28;20216;-70
2022/06/07 04:22:24;;;;;;;2.40;2.20;;;12.80;99.90;;;;;;4164528;28;20645;-70
2022/06/07 04:24:25;;;;;;;2.97;2.67;;;12.90;99.90;;;;;;4164689;28;20251;-70
2022/06/07 04:26:27;;;;;;;3.03;2.30;;;12.90;99.90;;;;;;4163834;28;20579;-70
2022/06/07 04:28:27;;;;;;;2.80;2.50;;;12.90;99.90;;;;;;4164403;28;20177;-70
2022/06/07 04:30:28;;;;;;;2.37;2.17;;;13.00;99.90;;;;;;4164290;28;20219;-70
2022/06/07 04:32:29;;;;;;;2.50;2.30;;;13.10;99.90;;;;;;4165615;28;20199;-70
2022/06/07 04:34:30;;;;;;;2.53;2.33;;;13.20;99.90;;;;;;4172585;28;20209;-70
2022/06/07 04:36:30;;;;;;;3.67;2.17;;;13.20;99.90;;;;;;4179860;28;20188;-70
2022/06/07 04:38:31;;;;;;;2.93;2.73;;;13.20;99.90;;;;;;4180614;28;20647;-70
2022/06/07 04:40:31;;;;;;;2.50;2.30;;;13.20;99.90;;;;;;4180651;28;20185;-70
2022/06/07 04:42:32;;;;;;;4.27;2.43;;;13.40;99.90;;;;;;4180719;28;20261;-70
2022/06/07 04:44:32;;;;;;;3.27;2.10;;;13.40;99.90;;;;;;4180497;28;20204;-70
2022/06/07 04:46:33;;;;;;;2.50;2.30;;;13.50;99.90;;;;;;4179733;28;20191;-70
2022/06/07 04:48:35;;;;;;;2.50;2.30;;;13.60;99.90;;;;;;4180487;28;20258;-70
2022/06/07 04:50:35;;;;;;;2.70;2.17;;;13.50;99.90;;;;;;4180512;28;20279;-70
2022/06/07 04:52:36;;;;;;;4.37;2.50;;;13.50;99.90;;;;;;4180359;28;20181;-70
2022/06/07 04:54:37;;;;;;;3.97;2.30;;;13.40;99.90;;;;;;4180424;28;20200;-70
2022/06/07 04:56:37;;;;;;;2.43;2.20;;;13.40;99.90;;;;;;4179700;28;20186;-70
2022/06/07 04:58:38;;;;;;;2.90;2.50;;;13.40;99.90;;;;;;4180300;28;20675;-70
2022/06/07 05:00:38;;;;;;;3.27;2.50;;;13.40;99.90;;;;;;4179554;28;20215;-70
2022/06/07 05:02:39;;;;;;;2.73;2.00;;;13.40;99.90;;;;;;4180125;28;20184;-70
2022/06/07 05:04:40;;;;;;;2.27;2.07;;;13.40;99.90;;;;;;4180111;28;20295;-70
2022/06/07 05:06:42;;;;;;;2.70;2.20;;;13.40;99.90;;;;;;4179689;28;20607;-70
2022/06/07 05:08:43;;;;;;;2.30;2.10;;;13.40;99.90;;;;;;4180148;28;20259;-70
2022/06/07 05:10:43;;;;;;;4.30;2.53;;;13.60;99.90;;;;;;4180155;28;20177;-70
2022/06/07 05:12:44;;;;;;;2.27;2.07;;;13.70;99.90;;;;;;4180287;28;20188;-70
2022/06/07 05:14:44;;;;;;;2.70;2.20;;;13.90;99.90;;;;;;4180288;28;20232;-70
2022/06/07 05:16:46;;;;;;;2.27;2.00;;;13.90;99.90;;;;;;4179561;28;20624;-70
2022/06/07 05:18:54;;;;;;;2.63;2.13;;;13.90;99.90;;;;;;4180070;28;20275;-70
2022/06/07 05:20:55;;;;;;;2.60;2.40;;;14.10;99.90;;;;;;4179903;28;20199;-70
2022/06/07 05:22:55;;;;;;;3.10;2.70;;;13.90;99.90;;;;;;4179937;28;20192;-70
2022/06/07 05:24:56;;;;;;;2.30;2.10;;;14.10;99.90;;;;;;4179688;28;20601;-70
2022/06/07 05:26:59;;;;;;;2.20;2.00;;;14.00;99.90;;;;;;4179494;28;20314;-70
2022/06/07 05:29:00;;;;;;;2.83;1.73;;;14.30;99.90;;;;;;4179932;28;20599;-70
2022/06/07 05:31:01;;;;;;;2.00;1.80;;;14.30;99.90;;;;;;4179847;28;20177;-70
2022/06/07 05:33:01;;;;;;;1.50;1.40;;;14.30;99.10;;;;;;4179796;28;20180;-70
2022/06/07 05:35:04;;;;;;;2.00;1.80;;;14.40;99.90;;;;;;4179548;28;20205;-70
2022/06/07 05:37:05;;;;;;;2.47;1.67;;;14.60;99.90;;;;;;4179411;28;20707;-70
2022/06/07 05:39:06;;;;;;;1.97;1.60;;;14.80;99.10;;;;;;4179818;28;20181;-70
2022/06/07 05:41:10;;;;;;;3.60;1.70;;;14.90;98.10;;;;;;4179689;28;20182;-70
2022/06/07 05:43:11;;;;;;;1.60;1.50;;;15.10;97.90;;;;;;4179393;28;20640;-70
2022/06/07 05:45:12;;;;;;;2.57;1.50;;;15.10;96.70;;;;;;4179176;28;20678;-70
2022/06/07 05:47:12;;;;;;;1.90;1.70;;;14.90;96.10;;;;;;4179186;28;20211;-70
2022/06/07 05:49:13;;;;;;;1.40;1.30;;;15.00;96.80;;;;;;4179511;28;20176;-70
2022/06/07 05:51:15;;;;;;;2.10;1.83;;;15.10;96.60;;;;;;4179558;28;20226;-70
2022/06/07 05:53:16;;;;;;;2.50;1.43;;;15.20;96.80;;;;;;4177710;28;20176;-70
2022/06/07 05:55:16;;;;;;;2.07;1.40;;;15.10;96.60;;;;;;4163110;28;20189;-70
2022/06/07 05:57:17;;;;;;;1.93;1.30;;;15.00;97.00;;;;;;4162786;28;20270;-70
2022/06/07 05:59:18;;;;;;;1.70;1.50;;;15.30;96.70;;;;;;4163045;28;20177;-69
2022/06/07 06:01:18;;;;;;;1.67;1.57;;;15.40;95.00;;;;;;4162878;28;20251;-69
2022/06/07 06:03:19;;;;;;;1.63;1.53;;;15.40;95.80;;;;;;4162784;28;20683;-69
2022/06/07 06:05:19;;;;;;;1.30;1.20;;;15.30;95.60;;;;;;4162238;28;20687;-71
2022/06/07 06:07:20;;;;;;;1.50;1.40;;;15.50;94.20;;;;;;4162689;28;20180;-70
2022/06/07 06:11:40;;;;;;;3.30;1.97;;;15.10;93.40;;;;;;4163190;28;20188;-70
2022/06/07 06:13:41;;;;;;;1.50;1.40;;;15.20;93.60;;;;;;4162493;28;20196;-70
2022/06/07 06:15:41;;;;;;;2.27;1.20;;;14.90;93.70;;;;;;4162113;28;20169;-70
2022/06/07 06:17:42;;;;;;;1.50;1.30;;;14.70;94.70;;;;;;4162190;28;20177;-69
2022/06/07 06:19:42;;;;;;;1.50;1.40;;;15.00;94.60;;;;;;4162660;28;20176;-70
2022/06/07 06:21:44;;;;;;;2.97;2.47;;;15.30;93.20;;;;;;4162560;28;20192;-70
2022/06/07 06:23:45;;;;;;;2.00;1.20;;;14.80;95.20;;;;;;4162224;28;20197;-70
2022/06/07 06:25:46;;;;;;;1.30;1.20;;;14.70;94.50;;;;;;4160555;28;20181;-70
2022/06/07 06:27:46;;;;;;;1.30;1.20;;;14.90;93.60;;;;;;4162501;28;20196;-70
2022/06/07 06:29:47;;;;;;;1.40;1.30;;;15.00;93.30;;;;;;4162472;28;20683;-70
2022/06/07 06:31:50;;;;;;;1.20;1.10;;;15.10;93.90;;;;;;4162367;28;20188;-70
2022/06/07 06:33:52;;;;;;;1.93;1.47;;;15.10;92.10;;;;;;4162347;28;20195;-70
2022/06/07 06:35:54;;;;;;;1.47;1.20;;;15.00;92.90;;;;;;4162130;28;20180;-70
2022/06/07 06:37:55;;;;;;;2.43;1.50;;;15.00;92.50;;;;;;4162333;28;20254;-70
2022/06/07 06:39:55;;;;;;;1.53;1.30;;;15.20;91.90;;;;;;4162295;28;20272;-70
2022/06/07 06:41:56;;;;;;;1.47;1.27;;;15.30;91.50;;;;;;4162244;28;20636;-70
2022/06/07 06:44:02;;;;;;;2.17;1.37;;;15.20;90.80;;;;;;4162269;28;20295;-70
2022/06/07 06:46:12;;;;;;;1.77;1.50;;;14.90;91.40;;;;;;4161694;28;20181;-70
2022/06/07 06:48:13;;;;;;;1.40;1.20;;;14.70;92.40;;;;;;4162419;28;20260;-70
2022/06/07 06:50:14;;;;;;;1.43;1.10;;;14.70;93.00;;;;;;4162326;28;20189;-70
2022/06/07 06:52:14;;;;;;;1.40;1.30;;;14.60;91.20;;;;;;4162272;28;20185;-70
2022/06/07 06:54:16;;;;;;;2.23;1.30;;;14.50;92.50;;;;;;4162159;28;20185;-69
2022/06/07 06:56:20;;;;;;;1.47;1.30;;;14.50;92.10;;;;;;4161593;28;20534;-70
2022/06/07 06:58:21;;;;;;;3.90;1.13;;;14.60;92.90;;;;;;4162207;28;20192;-70
2022/06/07 07:00:22;;;;;;;1.60;1.20;;;14.60;92.50;;;;;;4162127;28;20484;-70
2022/06/07 07:02:23;;;;;;;2.40;1.20;;;14.90;91.50;;;;;;4161996;28;20185;-70
2022/06/07 07:04:24;;;;;;;1.20;1.10;;;14.90;91.00;;;;;;4162049;28;20224;-70
2022/06/07 07:06:25;;;;;;;3.20;1.20;;;15.10;91.10;;;;;;4161283;28;20169;-70
2022/06/07 07:08:27;;;;;;;1.83;1.03;;;15.10;91.40;;;;;;4162090;28;20288;-70
2022/06/07 07:10:29;;;;;;;3.20;1.20;;;15.10;90.30;;;;;;4162094;28;20262;-70
2022/06/07 07:12:34;;;;;;;1.43;1.20;;;15.20;89.00;;;;;;4162422;28;20211;-70
2022/06/07 07:14:34;;;;;;;1.20;0.93;;;15.20;86.40;;;;;;4162146;28;20206;-70
2022/06/07 07:16:41;;;;;;;1.63;0.90;;;15.10;89.40;;;;;;4161395;28;20252;-69
2022/06/07 07:18:43;;;;;;;1.10;1.00;;;15.20;89.70;;;;;;4162108;28;20545;-70
2022/06/07 07:20:43;;;;;;;2.37;1.00;;;15.30;88.80;;;;;;4161978;28;20238;-70
2022/06/07 07:22:44;;;;;;;1.30;1.20;;;15.60;83.80;;;;;;4161939;28;20221;-70
2022/06/07 07:24:44;;;;;;;1.47;1.37;;;16.00;80.80;;;;;;4163354;28;20209;-70
2022/06/07 07:26:46;;;;;;;1.63;1.00;;;16.10;78.80;;;;;;4164720;28;20173;-70
2022/06/07 07:28:49;;;;;;;2.13;1.00;;;16.40;77.70;;;;;;4165255;28;20178;-70
2022/06/07 07:30:57;;;;;;;1.13;1.03;;;16.20;78.50;;;;;;4165404;28;20177;-70
2022/06/07 07:32:57;;;;;;;1.63;1.00;;;16.40;79.80;;;;;;4165188;28;20176;-70
2022/06/07 07:34:58;;;;;;;2.90;1.20;;;16.60;79.00;;;;;;4164817;28;20197;-70
2022/06/07 07:36:59;;;;;;;1.07;0.97;;;16.70;75.80;;;;;;4164815;28;20270;-70
2022/06/07 07:39:00;;;;;;;1.00;0.90;;;16.70;74.20;;;;;;4165059;28;20188;-70
2022/06/07 07:41:02;;;;;;;1.53;1.10;;;16.80;74.10;;;;;;4179856;28;20550;-70
2022/06/07 07:43:05;;;;;;;0.90;0.90;;;16.50;75.90;;;;;;4181845;28;20177;-70
2022/06/07 07:45:06;;;;;;;1.70;1.10;;;16.90;75.00;;;;;;4181010;28;20230;-70
2022/06/07 07:47:06;;;;;;;1.30;1.20;;;17.10;74.60;;;;;;4181195;28;20657;-70
2022/06/07 07:49:07;;;;;;;1.30;1.00;;;17.40;72.00;;;;;;4181527;28;20172;-69
2022/06/07 07:51:18;;;;;;;1.17;0.93;;;16.80;74.90;;;;;;4181495;28;20648;-69
2022/06/07 07:53:19;;;;;;;1.40;1.10;;;16.80;74.80;;;;;;4170050;28;20707;-70
2022/06/07 07:55:20;;;;;;;1.83;1.10;;;16.90;74.20;;;;;;4164237;28;20661;-70
2022/06/07 07:57:20;;;;;;;2.10;1.00;;;17.20;73.10;;;;;;4163965;28;20187;-69
2022/06/07 07:59:22;;;;;;;1.33;1.00;;;17.40;72.70;;;;;;4171520;28;20279;-69
2022/06/07 08:01:27;;;;;;;1.13;1.03;;;17.70;72.70;;;;;;4175771;28;20268;-68
2022/06/07 08:03:27;;;;;;;1.13;1.03;;;17.50;71.70;;;;;;4178923;28;20180;-71
2022/06/07 08:05:31;;;;;;;1.00;1.00;;;17.80;71.50;;;;;;4180125;28;20207;-70
2022/06/07 08:07:32;;;;;;;1.20;1.10;;;17.80;70.10;;;;;;4180455;28;20169;-70
2022/06/07 08:09:33;;;;;;;2.23;1.10;;;17.70;68.90;;;;;;4179874;28;20177;-70
2022/06/07 08:11:36;;;;;;;1.63;1.27;;;17.40;69.90;;;;;;4180704;28;21309;-70
2022/06/07 08:13:37;;;;;;;1.97;1.30;;;17.10;70.50;;;;;;4180107;28;20557;-71
2022/06/07 08:15:37;;;;;;;2.67;1.60;;;16.60;77.10;;;;;;4179908;28;20256;-69
2022/06/07 08:17:38;;;;;;;2.30;1.20;;;16.40;78.30;;;;;;4180544;28;20180;-70
2022/06/07 08:19:38;;;;;;;0.90;0.90;;;16.40;76.50;;;;;;4180561;28;20259;-69
2022/06/07 08:21:40;;;;;;;2.30;1.10;;;16.50;76.10;;;;;;4180293;28;20200;-68
2022/06/07 08:23:41;;;;;;;1.10;0.90;;;16.60;73.40;;;;;;4180205;28;20226;-69
2022/06/07 08:25:42;;;;;;;1.23;1.13;;;16.40;74.00;;;;;;4179597;28;20817;-69
2022/06/07 08:27:43;;;;;;;1.33;1.23;;;16.20;77.60;;;;;;4180432;28;20187;-70
2022/06/07 08:29:43;;;;;;;1.83;1.20;;;16.40;74.10;;;;;;4178791;28;20214;-69
2022/06/07 08:31:44;;;;;;;1.17;1.07;;;16.50;73.50;;;;;;4185703;28;20258;-69
2022/06/07 08:38:33;;;;;;;1.27;1.00;;;17.10;73.50;;;;;;4185580;28;20183;-69
2022/06/07 08:40:37;;;;;;;1.30;1.20;;;17.20;73.00;;;;;;4190842;28;20167;-69
2022/06/07 08:42:50;;;;;;;2.00;1.17;;;17.10;71.50;;;;;;4184835;28;20187;-68
2022/06/07 08:45:07;;;;;;;2.87;1.10;;;17.20;72.10;;;;;;4179585;28;20207;-69
2022/06/07 08:47:18;;;;;;;2.80;1.70;;;17.70;71.50;;;;;;4195110;28;20658;-69
2022/06/07 08:49:18;;;;;;;1.57;1.27;;;17.70;68.70;;;;;;4164735;28;20177;-69
2022/06/07 08:51:32;;;;;;;1.00;0.90;;;18.00;67.00;;;;;;4195678;28;20229;-69
2022/06/07 08:53:39;;;;;;;1.23;1.13;;;17.50;66.70;;;;;;4182427;28;20180;-69
2022/06/07 08:55:52;;;;;;;0.80;0.80;;;17.20;68.80;;;;;;4190847;28;20198;-70
2022/06/07 08:57:59;;;;;;;0.90;0.90;;;17.40;71.40;;;;;;4185135;28;20168;-70
2022/06/07 09:00:14;;;;;;;0.90;0.90;;;18.20;68.50;;;;;;4189862;28;20165;-69
2022/06/07 09:02:33;;;;;;;2.27;1.17;;;18.00;67.60;;;;;;4180046;28;20214;-69
2022/06/07 09:04:36;;;;;;;1.07;1.00;;;17.90;67.60;;;;;;4190588;28;20219;-69
2022/06/07 09:06:45;;;;;;;0.80;0.80;;;17.40;70.40;;;;;;4184157;28;20709;-69
2022/06/07 09:08:53;;;;;;;1.20;1.10;;;17.50;71.40;;;;;;4186718;28;20200;-68
2022/06/07 09:13:24;;;;;;;1.87;1.00;;;18.10;65.80;;;;;;4165269;28;20188;-70
2022/06/07 09:15:28;;;;;;;1.27;0.97;;;18.60;64.00;;;;;;4194251;28;20657;-70
2022/06/07 09:17:46;;;;;;;1.10;1.00;;;18.70;64.70;;;;;;4180359;28;20187;-70
2022/06/07 09:19:49;;;;;;;1.13;0.80;;;18.40;65.30;;;;;;4191318;28;20185;-69
2022/06/07 09:21:49;;;;;;;0.80;0.80;;;18.10;66.50;;;;;;4184049;28;20191;-70
2022/06/07 09:23:52;;;;;;;1.37;1.00;;;17.70;69.10;;;;;;4186984;28;20252;-69
2022/06/07 09:25:56;;;;;;;1.30;1.10;;;17.90;68.00;;;;;;4189773;28;20271;-70
2022/06/07 09:27:57;;;;;;;1.57;1.00;;;18.00;68.80;;;;;;4185093;28;20179;-69
2022/06/07 09:30:02;;;;;;;1.83;1.10;;;18.30;69.20;;;;;;4189453;28;20183;-69
2022/06/07 09:32:10;;;;;;;1.57;1.03;;;19.10;67.10;;;;;;4178905;28;20871;-70
2022/06/07 09:34:28;;;;;;;0.90;0.90;;;19.80;64.30;;;;;;4186979;28;20202;-69
2022/06/07 09:36:30;;;;;;;0.80;0.80;;;19.90;61.00;;;;;;4184574;28;20211;-69
2022/06/07 09:38:46;;;;;;;1.90;1.80;;;20.30;58.80;;;;;;4186705;28;20675;-69
2022/06/07 09:40:53;;;;;;;1.07;0.90;;;20.00;57.60;;;;;;4179606;28;20191;-69
2022/06/07 09:43:00;;;;;;;2.30;1.10;;;20.10;58.10;;;;;;4187961;28;20192;-69
2022/06/07 09:45:12;;;;;;;1.60;1.50;;;20.20;58.90;;;;;;4194113;28;20222;-68
2022/06/07 09:47:19;;;;;;;1.80;1.10;;;19.90;57.80;;;;;;4178430;28;20183;-69
2022/06/07 09:49:45;;;;;;;1.07;1.00;;;19.90;59.20;;;;;;4163913;28;20215;-69
2022/06/07 09:51:45;;;;;;;1.00;1.00;;;19.60;59.90;;;;;;4191317;28;20179;-70
2022/06/07 09:53:56;;;;;;;1.43;1.23;;;20.00;57.40;;;;;;4183221;28;20562;-69
2022/06/07 09:56:12;;;;;;;1.43;1.00;;;20.50;58.10;;;;;;4189098;28;20179;-69
2022/06/07 09:58:35;;;;;;;2.03;1.93;;;20.20;58.70;;;;;;4173572;28;20210;-69
2022/06/07 10:00:57;;;;;;;1.63;1.53;;;20.00;57.50;;;;;;4180599;28;20219;-69
2022/06/07 10:03:03;;;;;;;1.10;1.00;;;20.00;58.40;;;;;;4184404;28;20652;-70
2022/06/07 10:05:19;;;;;;;1.17;1.07;;;20.50;55.90;;;;;;4193865;28;20238;-69
2022/06/07 10:07:27;;;;;;;0.90;0.90;;;20.30;56.30;;;;;;4164045;28;20364;-70
2022/06/07 10:09:33;;;;;;;1.07;0.90;;;20.20;55.90;;;;;;4184522;28;20180;-69
2022/06/07 10:11:49;;;;;;;0.97;0.90;;;20.10;57.10;;;;;;4181346;28;20217;-68
2022/06/07 10:14:02;;;;;;;1.87;1.00;;;20.00;56.40;;;;;;4190232;28;20638;-68
2022/06/07 10:16:24;;;;;;;3.17;2.97;;;19.90;59.20;;;;;;4184574;28;20172;-68
2022/06/07 10:18:53;;;;;;;1.17;1.07;;;19.90;58.40;;;;;;4185406;28;20219;-68
2022/06/07 10:21:14;;;;;;;1.33;1.00;;;20.30;57.10;;;;;;4192199;28;20574;-68
2022/06/07 10:23:54;;;;;;;1.17;0.80;;;20.20;58.20;;;;;;4170529;28;20809;-69
2022/06/07 10:26:12;;;;;;;1.57;1.47;;;20.30;57.50;;;;;;4182791;28;20183;-68
2022/06/07 10:28:22;;;;;;;2.87;2.70;;;20.00;56.60;;;;;;4187509;28;20287;-68
2022/06/07 10:30:28;;;;;;;1.63;1.53;;;19.70;58.30;;;;;;4188608;28;20186;-67
2022/06/07 10:32:47;;;;;;;0.87;0.87;;;20.00;57.50;;;;;;4184163;28;20335;-69
2022/06/07 10:35:26;;;;;;;1.20;0.90;;;20.50;58.20;;;;;;4190728;28;20203;-69
2022/06/07 10:37:49;;;;;;;1.20;0.90;;;21.20;55.60;;;;;;4164232;28;20246;-67
2022/06/07 10:40:17;;;;;;;1.10;1.10;;;21.10;54.30;;;;;;4180991;28;20238;-68
2022/06/07 10:42:29;;;;;;;0.80;0.80;;;21.40;53.80;;;;;;4186830;28;20191;-68
2022/06/07 10:44:48;;;;;;;2.60;1.50;;;22.10;49.80;;;;;;4190045;28;20219;-68
2022/06/07 10:46:49;;;;;;;0.80;0.80;;;22.00;48.50;;;;;;4181085;28;20644;-68
2022/06/07 10:49:30;;;;;;;0.90;0.90;;;21.10;51.60;;;;;;4189908;28;20187;-68
2022/06/07 10:53:55;;;;;;;0.77;0.77;;;21.90;49.90;;;;;;4188897;28;20724;-68
2022/06/07 10:56:27;;;;;;;1.10;0.90;;;21.40;49.90;;;;;;4183083;28;20838;-69
2022/06/07 10:58:32;;;;;;;0.70;0.70;;;21.30;50.70;;;;;;4179139;28;20192;-68
2022/06/07 11:00:45;;;;;;;1.10;0.87;;;21.30;51.50;;;;;;4183771;28;20191;-68
2022/06/07 11:03:08;;;;;;;0.70;0.70;;;20.70;52.10;;;;;;4186835;28;20183;-68